createdAt,value
2023-06-17T00:00:57.006Z,99.81
2023-06-17T00:03:25.736Z,99.60
2023-06-17T00:05:53.078Z,99.70
2023-06-17T00:08:20.460Z,99.90
2023-06-17T00:10:48.145Z,99.63
2023-06-17T00:13:15.513Z,99.76
2023-06-17T00:15:42.758Z,99.08
2023-06-17T00:18:10.042Z,99.07
2023-06-17T00:20:38.742Z,98.96
2023-06-17T00:23:05.979Z,99.52
2023-06-17T00:25:33.240Z,99.60
2023-06-17T00:28:00.495Z,99.36
2023-06-17T00:30:27.721Z,99.75
2023-06-17T00:32:55.184Z,99.85
2023-06-17T00:35:22.740Z,99.55
2023-06-17T00:37:51.382Z,99.72
2023-06-17T00:40:19.025Z,99.81
2023-06-17T00:42:46.418Z,99.92
2023-06-17T00:45:13.542Z,99.46
2023-06-17T00:47:41.782Z,99.61
2023-06-17T00:50:10.528Z,99.51
2023-06-17T00:52:41.967Z,99.03
2023-06-17T00:55:12.094Z,98.44
2023-06-17T00:57:40.222Z,98.52
2023-06-17T01:00:09.001Z,98.07
2023-06-17T01:02:36.454Z,98.00
2023-06-17T01:05:04.005Z,97.88
2023-06-17T01:07:39.465Z,98.31
2023-06-17T01:10:13.189Z,97.55
2023-06-17T01:12:43.533Z,97.68
2023-06-17T01:15:12.539Z,98.06
2023-06-17T01:17:40.950Z,98.02
2023-06-17T01:20:09.433Z,98.49
2023-06-17T01:22:38.822Z,98.17
2023-06-17T01:25:09.015Z,98.65
2023-06-17T01:27:36.413Z,98.47
2023-06-17T01:30:04.205Z,98.71
2023-06-17T01:32:31.651Z,98.80
2023-06-17T01:35:03.760Z,99.13
2023-06-17T01:37:38.399Z,99.10
2023-06-17T01:40:11.382Z,99.30
2023-06-17T01:42:44.576Z,99.91
2023-06-17T01:45:13.850Z,99.60
2023-06-17T01:47:41.621Z,99.76
2023-06-17T01:50:09.814Z,100.00
2023-06-17T01:52:38.998Z,100.00
2023-06-17T01:55:09.383Z,99.77
2023-06-17T01:57:37.046Z,100.00
2023-06-17T02:00:05.287Z,100.00
2023-06-17T02:02:32.874Z,100.00
2023-06-17T02:05:00.198Z,100.00
2023-06-17T02:07:27.600Z,100.00
2023-06-17T02:09:54.909Z,100.00
2023-06-17T02:12:23.670Z,100.00
2023-06-17T02:14:50.949Z,100.00
2023-06-17T02:17:18.273Z,100.00
2023-06-17T02:19:47.117Z,100.00
2023-06-17T02:22:14.459Z,100.00
2023-06-17T02:24:41.959Z,100.00
2023-06-17T02:27:09.277Z,100.00
2023-06-17T02:29:38.225Z,100.00
2023-06-17T02:32:08.377Z,100.00
2023-06-17T02:34:37.891Z,100.00
2023-06-17T02:37:05.610Z,100.00
2023-06-17T02:39:32.887Z,99.75
2023-06-17T02:42:00.245Z,100.00
2023-06-17T02:44:27.599Z,100.00
2023-06-17T02:49:25.669Z,99.95
2023-06-17T02:51:52.983Z,100.00
2023-06-17T02:54:20.476Z,99.95
2023-06-17T02:56:47.778Z,100.00
2023-06-17T02:59:15.806Z,100.00
2023-06-17T03:01:43.264Z,99.99
2023-06-17T03:04:11.424Z,100.00
2023-06-17T03:06:40.956Z,100.00
2023-06-17T03:09:08.583Z,100.00
2023-06-17T03:11:36.725Z,100.00
2023-06-17T03:14:04.591Z,100.00
2023-06-17T03:16:32.363Z,100.00
2023-06-17T03:18:59.632Z,100.00
2023-06-17T03:21:27.120Z,100.00
2023-06-17T03:23:57.512Z,100.00
2023-06-17T03:26:24.835Z,100.00
2023-06-17T03:28:52.623Z,100.00
2023-06-17T03:31:21.207Z,100.00
2023-06-17T03:33:51.852Z,100.00
2023-06-17T03:36:19.257Z,100.00
2023-06-17T03:38:46.694Z,100.00
2023-06-17T03:41:16.867Z,99.73
2023-06-17T03:43:44.434Z,99.99
2023-06-17T03:46:11.792Z,100.00
2023-06-17T03:48:40.086Z,99.87
2023-06-17T03:51:07.448Z,100.00
2023-06-17T03:53:34.996Z,100.00
2023-06-17T03:56:02.364Z,99.77
2023-06-17T03:58:31.023Z,100.00
2023-06-17T04:00:59.316Z,100.00
2023-06-17T04:03:26.903Z,100.00
2023-06-17T04:05:54.229Z,100.00
2023-06-17T04:08:22.739Z,100.00
2023-06-17T04:10:50.091Z,100.00
2023-06-17T04:13:17.651Z,100.00
2023-06-17T04:15:47.938Z,100.00
2023-06-17T04:18:15.283Z,99.84
2023-06-17T04:20:42.845Z,100.00
2023-06-17T04:23:10.131Z,99.84
2023-06-17T04:25:38.206Z,99.91
2023-06-17T04:28:05.878Z,100.00
2023-06-17T04:30:33.486Z,99.69
2023-06-17T04:33:02.270Z,99.39
2023-06-17T04:35:29.862Z,99.68
2023-06-17T04:37:57.426Z,100.00
2023-06-17T04:40:25.773Z,99.76
2023-06-17T04:42:53.715Z,99.74
2023-06-17T04:45:20.798Z,99.27
2023-06-17T04:47:48.206Z,99.24
2023-06-17T04:50:18.637Z,99.52
2023-06-17T04:52:47.290Z,99.23
2023-06-17T04:55:14.696Z,99.04
2023-06-17T04:57:42.714Z,98.61
2023-06-17T05:00:11.119Z,98.15
2023-06-17T05:02:38.486Z,97.99
2023-06-17T05:05:07.183Z,98.09
2023-06-17T05:07:35.982Z,98.48
2023-06-17T05:10:03.643Z,98.37
2023-06-17T05:12:31.086Z,98.72
2023-06-17T05:14:58.358Z,98.56
2023-06-17T05:17:26.008Z,98.79
2023-06-17T05:19:53.283Z,99.26
2023-06-17T05:22:20.550Z,99.00
2023-06-17T05:24:49.207Z,98.94
2023-06-17T05:27:17.060Z,98.98
2023-06-17T05:29:44.127Z,99.10
2023-06-17T05:32:11.317Z,99.00
2023-06-17T05:34:38.629Z,98.88
2023-06-17T05:37:06.235Z,98.88
2023-06-17T05:39:33.537Z,98.77
2023-06-17T05:42:02.342Z,99.02
2023-06-17T05:44:29.614Z,99.29
2023-06-17T05:46:56.850Z,98.41
2023-06-17T05:49:24.113Z,97.94
2023-06-17T05:51:51.424Z,97.98
2023-06-17T05:54:18.752Z,97.80
2023-06-17T05:56:46.024Z,97.82
2023-06-17T05:59:16.695Z,97.82
2023-06-17T06:01:45.437Z,97.30
2023-06-17T06:04:12.859Z,95.79
2023-06-17T06:06:40.248Z,96.16
2023-06-17T06:09:07.551Z,95.98
2023-06-17T06:11:34.966Z,96.07
2023-06-17T06:14:02.234Z,95.55
2023-06-17T06:16:30.980Z,95.77
2023-06-17T06:18:58.315Z,95.32
2023-06-17T06:21:25.544Z,94.76
2023-06-17T06:23:53.953Z,95.42
2023-06-17T06:26:22.972Z,94.35
2023-06-17T06:28:50.250Z,93.77
2023-06-17T06:31:17.572Z,95.20
2023-06-17T06:33:46.263Z,94.93
2023-06-17T06:36:15.117Z,94.87
2023-06-17T06:38:42.408Z,94.42
2023-06-17T06:41:09.681Z,94.95
2023-06-17T06:43:36.950Z,94.69
2023-06-17T06:46:04.316Z,93.81
2023-06-17T06:48:31.695Z,93.97
2023-06-17T06:51:00.394Z,94.16
2023-06-17T06:53:28.656Z,92.36
2023-06-17T06:55:55.907Z,91.94
2023-06-17T06:58:23.204Z,91.90
2023-06-17T07:00:50.545Z,91.65
2023-06-17T07:03:17.751Z,90.83
2023-06-17T07:05:45.040Z,90.29
2023-06-17T07:08:13.730Z,90.63
2023-06-17T07:10:42.335Z,90.95
2023-06-17T07:13:09.964Z,90.35
2023-06-17T07:15:37.378Z,90.91
2023-06-17T07:18:04.847Z,90.66
2023-06-17T07:20:32.090Z,91.67
2023-06-17T07:22:59.350Z,91.90
2023-06-17T07:25:28.013Z,90.82
2023-06-17T07:27:55.702Z,91.56
2023-06-17T07:30:23.191Z,89.99
2023-06-17T07:32:50.652Z,89.64
2023-06-17T07:35:18.844Z,89.55
2023-06-17T07:37:46.258Z,89.37
2023-06-17T07:40:14.500Z,89.74
2023-06-17T07:42:43.684Z,90.04
2023-06-17T07:45:12.330Z,88.52
2023-06-17T07:47:39.805Z,88.85
2023-06-17T07:50:09.132Z,87.79
2023-06-17T07:52:36.506Z,89.04
2023-06-17T07:55:07.744Z,89.25
2023-06-17T07:57:35.882Z,90.16
2023-06-17T08:00:06.037Z,88.65
2023-06-17T08:02:33.470Z,87.53
2023-06-17T08:05:00.970Z,87.61
2023-06-17T08:07:28.440Z,88.41
2023-06-17T08:09:55.877Z,88.06
2023-06-17T08:12:23.142Z,87.73
2023-06-17T08:14:50.742Z,87.89
2023-06-17T08:17:19.394Z,86.75
2023-06-17T08:19:46.968Z,87.73
2023-06-17T08:22:14.347Z,87.78
2023-06-17T08:24:43.445Z,85.60
2023-06-17T08:27:11.247Z,85.50
2023-06-17T08:29:38.598Z,86.45
2023-06-17T08:32:06.494Z,86.20
2023-06-17T08:34:35.235Z,87.50
2023-06-17T08:37:02.675Z,85.36
2023-06-17T08:39:31.227Z,84.67
2023-06-17T08:41:58.588Z,85.17
2023-06-17T08:44:26.768Z,85.86
2023-06-17T08:46:57.834Z,85.33
2023-06-17T08:49:26.355Z,85.02
2023-06-17T08:51:56.026Z,85.52
2023-06-17T08:54:25.352Z,84.68
2023-06-17T08:56:52.693Z,84.42
2023-06-17T08:59:20.022Z,83.84
2023-06-17T09:01:52.415Z,83.16
2023-06-17T09:04:22.076Z,81.58
2023-06-17T09:06:49.401Z,81.59
2023-06-17T09:09:18.122Z,80.74
2023-06-17T09:11:52.221Z,80.49
2023-06-17T09:14:21.417Z,81.14
2023-06-17T09:16:50.609Z,81.52
2023-06-17T09:19:18.347Z,81.56
2023-06-17T09:21:46.774Z,81.62
2023-06-17T09:24:14.152Z,82.29
2023-06-17T09:26:44.268Z,80.82
2023-06-17T09:29:13.146Z,76.71
2023-06-17T09:31:50.911Z,79.86
2023-06-17T09:34:18.505Z,79.92
2023-06-17T09:36:47.277Z,80.08
2023-06-17T09:39:14.613Z,77.70
2023-06-17T09:41:44.812Z,78.45
2023-06-17T09:44:12.706Z,78.41
2023-06-17T09:46:39.984Z,78.06
2023-06-17T09:49:08.211Z,79.30
2023-06-17T09:51:37.031Z,78.59
2023-06-17T09:54:05.184Z,77.64
2023-06-17T09:56:33.128Z,77.94
2023-06-17T09:59:02.131Z,76.98
2023-06-17T10:01:29.508Z,76.90
2023-06-17T10:03:56.954Z,74.79
2023-06-17T10:06:26.952Z,73.75
2023-06-17T10:08:54.618Z,71.78
2023-06-17T10:11:21.883Z,74.38
2023-06-17T10:13:57.115Z,75.29
2023-06-17T10:16:29.271Z,74.97
2023-06-17T10:19:00.057Z,73.37
2023-06-17T10:21:30.707Z,73.20
2023-06-17T10:24:00.578Z,70.84
2023-06-17T10:26:29.411Z,70.40
2023-06-17T10:29:02.687Z,70.19
2023-06-17T10:31:32.585Z,68.91
2023-06-17T10:34:02.127Z,67.53
2023-06-17T10:36:29.762Z,68.49
2023-06-17T10:38:57.288Z,69.22
2023-06-17T10:41:54.818Z,67.43
2023-06-17T10:44:43.041Z,65.42
2023-06-17T10:47:22.324Z,64.73
2023-06-17T10:49:50.248Z,64.79
2023-06-17T10:52:18.185Z,66.61
2023-06-17T10:54:50.053Z,66.43
2023-06-17T10:57:28.585Z,69.00
2023-06-17T10:59:55.894Z,70.14
2023-06-17T11:02:24.860Z,69.95
2023-06-17T11:04:52.409Z,71.97
2023-06-17T11:07:26.652Z,70.84
2023-06-17T11:09:54.316Z,70.44
2023-06-17T11:12:21.380Z,72.15
2023-06-17T11:14:48.568Z,73.18
2023-06-17T11:17:16.095Z,72.11
2023-06-17T11:19:44.622Z,72.90
2023-06-17T11:22:12.549Z,72.78
2023-06-17T11:24:39.915Z,71.23
2023-06-17T11:27:07.744Z,69.73
2023-06-17T11:29:35.079Z,67.58
2023-06-17T11:32:02.841Z,68.28
2023-06-17T11:34:30.110Z,67.05
2023-06-17T11:36:59.540Z,66.44
2023-06-17T11:39:28.860Z,64.39
2023-06-17T11:41:56.742Z,62.41
2023-06-17T11:44:24.044Z,59.06
2023-06-17T11:46:54.706Z,57.97
2023-06-17T11:49:25.127Z,56.16
2023-06-17T11:51:52.512Z,54.31
2023-06-17T11:54:26.883Z,54.32
2023-06-17T11:56:54.894Z,54.72
2023-06-17T11:59:23.094Z,54.03
2023-06-17T12:01:50.762Z,54.64
2023-06-17T12:04:18.233Z,51.34
2023-06-17T12:06:47.625Z,49.00
2023-06-17T12:09:15.576Z,50.06
2023-06-17T12:11:44.355Z,52.68
2023-06-17T12:14:13.170Z,53.50
2023-06-17T12:16:41.289Z,53.98
2023-06-17T12:19:15.511Z,55.73
2023-06-17T12:21:42.878Z,56.09
2023-06-17T12:24:10.187Z,56.43
2023-06-17T12:26:37.440Z,55.72
2023-06-17T12:29:15.865Z,56.38
2023-06-17T12:31:52.260Z,58.55
2023-06-17T12:34:19.571Z,59.91
2023-06-17T12:36:46.965Z,63.86
2023-06-17T12:39:14.310Z,66.79
2023-06-17T12:41:41.608Z,70.20
2023-06-17T12:44:10.338Z,72.98
2023-06-17T12:46:37.679Z,75.41
2023-06-17T12:49:06.162Z,77.40
2023-06-17T12:51:33.397Z,79.02
2023-06-17T12:54:00.665Z,81.89
2023-06-17T12:56:28.015Z,86.04
2023-06-17T12:58:55.319Z,90.28
2023-06-17T13:01:23.994Z,92.71
2023-06-17T13:03:51.352Z,93.49
2023-06-17T13:06:18.664Z,94.54
2023-06-17T13:08:45.907Z,94.92
2023-06-17T13:11:13.288Z,95.24
2023-06-17T13:13:40.557Z,95.91
2023-06-17T13:16:07.859Z,95.84
2023-06-17T13:18:36.715Z,96.27
2023-06-17T13:21:04.082Z,96.18
2023-06-17T13:23:31.497Z,95.93
2023-06-17T13:25:58.805Z,95.40
2023-06-17T13:28:26.170Z,94.25
2023-06-17T13:31:01.678Z,93.83
2023-06-17T13:33:29.055Z,93.34
2023-06-17T13:35:57.899Z,91.42
2023-06-17T13:38:25.257Z,89.10
2023-06-17T13:40:52.557Z,90.74
2023-06-17T13:43:19.840Z,90.14
2023-06-17T13:45:47.686Z,88.80
2023-06-17T13:48:15.011Z,89.78
2023-06-17T13:50:42.280Z,90.40
2023-06-17T13:53:10.937Z,88.83
2023-06-17T13:55:38.238Z,88.02
2023-06-17T13:58:05.547Z,88.73
2023-06-17T14:00:32.845Z,87.17
2023-06-17T14:03:00.242Z,87.86
2023-06-17T14:05:27.672Z,88.18
2023-06-17T14:07:55.003Z,88.42
2023-06-17T14:10:24.012Z,87.63
2023-06-17T14:12:51.528Z,85.79
2023-06-17T14:15:18.800Z,85.12
2023-06-17T14:17:46.099Z,84.27
2023-06-17T14:20:13.630Z,83.72
2023-06-17T14:22:40.924Z,82.43
2023-06-17T14:25:08.908Z,80.55
2023-06-17T14:27:39.109Z,79.65
2023-06-17T14:30:09.434Z,78.07
2023-06-17T14:32:36.793Z,76.88
2023-06-17T14:35:04.527Z,76.44
2023-06-17T14:37:31.856Z,75.95
2023-06-17T14:39:59.306Z,73.41
2023-06-17T14:42:26.606Z,72.46
2023-06-17T14:44:55.304Z,72.27
2023-06-17T14:47:23.384Z,72.72
2023-06-17T14:49:50.661Z,73.38
2023-06-17T14:52:18.135Z,74.91
2023-06-17T14:54:45.798Z,74.58
2023-06-17T14:57:13.049Z,74.43
2023-06-17T14:59:40.272Z,73.66
2023-06-17T15:02:33.000Z,73.89
2023-06-17T15:05:00.420Z,75.50
2023-06-17T15:07:27.672Z,76.93
2023-06-17T15:09:54.932Z,77.25
2023-06-17T15:12:22.295Z,78.09
2023-06-17T15:14:49.581Z,78.46
2023-06-17T15:17:18.263Z,76.88
2023-06-17T15:19:45.535Z,76.99
2023-06-17T15:22:12.915Z,75.36
2023-06-17T15:24:40.213Z,74.05
2023-06-17T15:27:07.599Z,73.72
2023-06-17T15:29:34.847Z,72.32
2023-06-17T15:32:02.086Z,70.02
2023-06-17T15:34:30.830Z,70.02
2023-06-17T15:36:58.098Z,70.01
2023-06-17T15:39:26.871Z,66.36
2023-06-17T15:41:55.321Z,67.82
2023-06-17T15:44:22.764Z,69.75
2023-06-17T15:46:50.673Z,68.25
2023-06-17T15:49:18.718Z,67.17
2023-06-17T15:51:47.339Z,66.54
2023-06-17T15:54:14.698Z,66.75
2023-06-17T15:56:43.946Z,67.41
2023-06-17T15:59:11.207Z,66.93
2023-06-17T16:01:38.550Z,67.41
2023-06-17T16:04:33.667Z,65.16
2023-06-17T16:07:03.949Z,66.90
2023-06-17T16:09:32.439Z,66.71
2023-06-17T16:12:00.160Z,65.75
2023-06-17T16:14:28.654Z,66.67
2023-06-17T16:16:55.921Z,67.07
2023-06-17T16:19:23.261Z,68.95
2023-06-17T16:21:50.557Z,68.27
2023-06-17T16:24:19.286Z,68.34
2023-06-17T16:26:46.582Z,68.86
2023-06-17T16:29:13.910Z,67.94
2023-06-17T16:31:41.212Z,69.97
2023-06-17T16:34:08.497Z,70.47
2023-06-17T16:36:35.779Z,69.00
2023-06-17T16:39:03.295Z,67.98
2023-06-17T16:41:31.947Z,68.08
2023-06-17T16:43:59.198Z,66.96
2023-06-17T16:46:26.443Z,65.43
2023-06-17T16:48:53.952Z,63.03
2023-06-17T16:51:21.302Z,65.45
2023-06-17T16:53:48.757Z,64.73
2023-06-17T16:56:16.141Z,65.38
2023-06-17T16:58:44.811Z,64.71
2023-06-17T17:01:12.158Z,64.97
2023-06-17T17:03:39.599Z,65.23
2023-06-17T17:06:06.895Z,65.39
2023-06-17T17:08:34.501Z,65.09
2023-06-17T17:11:01.687Z,64.84
2023-06-17T17:13:39.796Z,62.42
2023-06-17T17:16:16.711Z,63.63
2023-06-17T17:18:44.195Z,64.06
2023-06-17T17:21:11.456Z,63.40
2023-06-17T17:23:39.884Z,63.16
2023-06-17T17:26:07.562Z,62.43
2023-06-17T17:28:34.833Z,63.64
2023-06-17T17:31:02.633Z,63.61
2023-06-17T17:33:31.279Z,63.86
2023-06-17T17:35:58.502Z,63.23
2023-06-17T17:38:25.815Z,62.03
2023-06-17T17:40:53.279Z,63.40
2023-06-17T17:43:20.590Z,63.29
2023-06-17T17:45:47.940Z,63.48
2023-06-17T17:48:15.327Z,63.31
2023-06-17T17:50:43.973Z,64.14
2023-06-17T17:53:11.231Z,63.93
2023-06-17T17:55:38.551Z,64.08
2023-06-17T17:58:05.900Z,65.08
2023-06-17T18:00:33.256Z,64.93
2023-06-17T18:03:00.643Z,64.27
2023-06-17T18:05:27.978Z,65.73
2023-06-17T18:07:56.695Z,66.12
2023-06-17T18:10:24.261Z,67.37
2023-06-17T18:12:51.745Z,66.32
2023-06-17T18:15:19.058Z,67.45
2023-06-17T18:17:46.399Z,66.30
2023-06-17T18:20:13.754Z,65.99
2023-06-17T18:22:41.057Z,66.06
2023-06-17T18:25:10.720Z,66.34
2023-06-17T18:27:38.900Z,66.47
2023-06-17T18:30:07.550Z,66.62
2023-06-17T18:32:34.825Z,68.16
2023-06-17T18:35:02.084Z,69.32
2023-06-17T18:37:29.406Z,70.16
2023-06-17T18:39:56.701Z,71.62
2023-06-17T18:42:25.390Z,72.33
2023-06-17T18:44:52.712Z,73.13
2023-06-17T18:47:20.066Z,74.14
2023-06-17T18:49:50.435Z,75.36
2023-06-17T18:52:17.933Z,74.61
2023-06-17T18:54:45.201Z,75.68
2023-06-17T18:57:12.489Z,76.76
2023-06-17T18:59:41.107Z,75.75
2023-06-17T19:02:08.383Z,77.84
2023-06-17T19:04:35.679Z,78.01
2023-06-17T19:07:04.700Z,78.15
2023-06-17T19:09:32.134Z,78.71
2023-06-17T19:11:59.422Z,79.69
2023-06-17T19:14:26.732Z,80.18
2023-06-17T19:16:55.530Z,81.43
2023-06-17T19:19:22.904Z,82.79
2023-06-17T19:21:50.212Z,83.27
2023-06-17T19:24:17.571Z,82.22
2023-06-17T19:26:44.948Z,84.01
2023-06-17T19:29:12.317Z,83.50
2023-06-17T19:31:39.606Z,83.80
2023-06-17T19:34:08.249Z,84.67
2023-06-17T19:36:35.527Z,84.98
2023-06-17T19:39:02.784Z,84.54
2023-06-17T19:41:30.060Z,84.55
2023-06-17T19:43:57.380Z,85.09
2023-06-17T19:46:25.910Z,86.26
2023-06-17T19:48:53.292Z,86.22
2023-06-17T19:51:21.927Z,85.55
2023-06-17T19:53:49.202Z,86.17
2023-06-17T19:56:16.655Z,85.33
2023-06-17T19:58:44.112Z,86.02
2023-06-17T20:01:11.443Z,87.00
2023-06-17T20:03:38.848Z,88.48
2023-06-17T20:06:06.235Z,89.30
2023-06-17T20:08:34.886Z,90.27
2023-06-17T20:11:02.103Z,90.50
2023-06-17T20:13:29.388Z,90.21
2023-06-17T20:15:56.796Z,89.84
2023-06-17T20:18:24.151Z,89.17
2023-06-17T20:20:51.529Z,88.40
2023-06-17T20:23:18.832Z,88.83
2023-06-17T20:25:47.455Z,89.91
2023-06-17T20:28:14.684Z,89.96
2023-06-17T20:30:41.936Z,91.03
2023-06-17T20:33:09.460Z,91.41
2023-06-17T20:35:36.794Z,90.95
2023-06-17T20:38:04.049Z,90.79
2023-06-17T20:40:31.363Z,90.68
2023-06-17T20:43:00.007Z,91.71
2023-06-17T20:45:27.253Z,91.32
2023-06-17T20:47:54.584Z,91.22
2023-06-17T20:50:22.035Z,91.17
2023-06-17T20:52:49.377Z,90.38
2023-06-17T20:55:16.635Z,90.30
2023-06-17T20:57:43.913Z,90.51
2023-06-17T21:00:14.000Z,91.09
2023-06-17T21:02:41.394Z,90.65
2023-06-17T21:05:08.989Z,91.06
2023-06-17T21:07:36.382Z,90.79
2023-06-17T21:10:04.363Z,89.83
2023-06-17T21:12:31.897Z,87.84
2023-06-17T21:14:59.414Z,88.87
2023-06-17T21:17:28.079Z,89.85
2023-06-17T21:19:56.681Z,89.90
2023-06-17T21:22:24.005Z,90.06
2023-06-17T21:24:51.250Z,90.62
2023-06-17T21:27:18.826Z,89.95
2023-06-17T21:29:46.419Z,90.41
2023-06-17T21:32:13.671Z,91.16
2023-06-17T21:34:44.601Z,91.53
2023-06-17T21:37:11.841Z,91.79
2023-06-17T21:39:39.142Z,92.60
2023-06-17T21:42:06.617Z,91.83
2023-06-17T21:44:34.694Z,92.03
2023-06-17T21:47:02.139Z,92.03
2023-06-17T21:49:29.454Z,91.17
2023-06-17T21:51:58.109Z,91.76
2023-06-17T21:54:25.341Z,93.03
2023-06-17T21:56:52.661Z,93.26
2023-06-17T21:59:19.900Z,92.34
2023-06-17T22:01:47.225Z,92.72
2023-06-17T22:04:14.659Z,93.65
2023-06-17T22:06:41.891Z,92.96
2023-06-17T22:09:10.599Z,92.27
2023-06-17T22:11:37.908Z,91.98
2023-06-17T22:14:05.167Z,92.18
2023-06-17T22:16:32.457Z,92.49
2023-06-17T22:18:59.811Z,92.97
2023-06-17T22:21:27.074Z,93.46
2023-06-17T22:23:54.382Z,92.42
2023-06-17T22:26:23.170Z,93.23
2023-06-17T22:28:50.535Z,93.39
2023-06-17T22:31:17.888Z,94.11
2023-06-17T22:33:45.174Z,94.30
2023-06-17T22:36:12.548Z,94.30
2023-06-17T22:38:39.926Z,94.20
2023-06-17T22:41:07.357Z,94.34
2023-06-17T22:43:36.323Z,94.44
2023-06-17T22:46:03.865Z,94.46
2023-06-17T22:48:31.264Z,94.76
2023-06-17T22:50:58.524Z,94.23
2023-06-17T22:53:25.876Z,94.35
2023-06-17T22:55:53.142Z,94.55
2023-06-17T22:58:20.410Z,94.52
2023-06-17T23:00:49.258Z,95.02
2023-06-17T23:03:16.607Z,94.79
2023-06-17T23:05:43.974Z,95.14
2023-06-17T23:08:11.216Z,95.03
2023-06-17T23:10:38.528Z,94.39
2023-06-17T23:13:05.805Z,94.31
2023-06-17T23:15:33.466Z,94.58
2023-06-17T23:18:02.184Z,95.21
2023-06-17T23:20:29.703Z,94.85
2023-06-17T23:22:56.939Z,95.29
2023-06-17T23:25:24.144Z,95.81
2023-06-17T23:27:51.376Z,95.93
2023-06-17T23:30:18.786Z,95.77
2023-06-17T23:32:46.437Z,95.47
2023-06-17T23:35:15.306Z,95.64
2023-06-17T23:37:42.568Z,95.47
2023-06-17T23:40:10.420Z,93.78
2023-06-17T23:42:37.726Z,93.56
2023-06-17T23:45:05.714Z,93.91
2023-06-17T23:47:32.883Z,94.30
2023-06-17T23:50:00.233Z,94.91
2023-06-17T23:52:28.841Z,94.97
2023-06-17T23:54:56.335Z,95.17
2023-06-17T23:57:23.624Z,95.26
2023-06-17T23:59:50.884Z,93.97
